Terminal Aerodrome Forecast
Issued by NWS

Home | Current Version | Previous Version | Text Only | Print | Product List | Glossary On
Versions: 1 2 3 4 5 6 7 8 9 10 11 12 13 14 15
000
FTUS43 KTOP 070040 AAA
TAFFOE
TAF AMD
KFOE 070040Z 0701/0724 02010KT P6SM -SHRA SCT020 OVC035
     FM070200 01012KT P6SM VCSH OVC015
     FM070800 01010KT P6SM SCT008 BKN035
     FM071500 02009KT P6SM SCT100=

USA.gov is the U.S. government's official web portal to all federal, state and local government web resources and services.